sensor_id;sensor_type;location;lat;lon;timestamp;temperature;humidity
51035;DHT22;37062;52.546;13.230;2023-10-31T00:00:25;14.40;99.90
51035;DHT22;37062;52.546;13.230;2023-10-31T00:02:53;14.50;99.90
51035;DHT22;37062;52.546;13.230;2023-10-31T00:05:21;14.50;99.90
51035;DHT22;37062;52.546;13.230;2023-10-31T00:07:50;14.40;99.90
51035;DHT22;37062;52.546;13.230;2023-10-31T00:10:19;14.50;99.90
51035;DHT22;37062;52.546;13.230;2023-10-31T00:12:47;14.50;99.90
51035;DHT22;37062;52.546;13.230;2023-10-31T00:15:16;14.60;99.90
51035;DHT22;37062;52.546;13.230;2023-10-31T00:17:45;14.60;99.90
51035;DHT22;37062;52.546;13.230;2023-10-31T00:20:13;14.70;99.90
51035;DHT22;37062;52.546;13.230;2023-10-31T00:22:41;14.80;99.90
51035;DHT22;37062;52.546;13.230;2023-10-31T00:25:09;14.90;99.90
51035;DHT22;37062;52.546;13.230;2023-10-31T00:27:38;15.00;99.90
51035;DHT22;37062;52.546;13.230;2023-10-31T00:30:07;15.00;99.90
51035;DHT22;37062;52.546;13.230;2023-10-31T00:32:36;15.00;99.90
51035;DHT22;37062;52.546;13.230;2023-10-31T00:35:05;15.10;99.90
51035;DHT22;37062;52.546;13.230;2023-10-31T00:37:33;15.10;99.90
51035;DHT22;37062;52.546;13.230;2023-10-31T00:40:02;15.10;99.90
51035;DHT22;37062;52.546;13.230;2023-10-31T00:42:30;15.10;99.90
51035;DHT22;37062;52.546;13.230;2023-10-31T00:44:59;15.20;99.90
51035;DHT22;37062;52.546;13.230;2023-10-31T00:47:27;15.20;99.90
51035;DHT22;37062;52.546;13.230;2023-10-31T00:49:57;15.20;99.90
51035;DHT22;37062;52.546;13.230;2023-10-31T00:52:25;15.10;99.90
51035;DHT22;37062;52.546;13.230;2023-10-31T00:54:53;15.10;99.90
51035;DHT22;37062;52.546;13.230;2023-10-31T00:57:22;15.10;99.90
51035;DHT22;37062;52.546;13.230;2023-10-31T00:59:50;15.10;99.90
51035;DHT22;37062;52.546;13.230;2023-10-31T01:02:18;15.20;99.90
51035;DHT22;37062;52.546;13.230;2023-10-31T01:04:48;15.20;99.90
51035;DHT22;37062;52.546;13.230;2023-10-31T01:07:17;15.20;99.90
51035;DHT22;37062;52.546;13.230;2023-10-31T01:09:46;15.20;99.90
51035;DHT22;37062;52.546;13.230;2023-10-31T01:12:14;15.20;99.90
51035;DHT22;37062;52.546;13.230;2023-10-31T01:14:42;15.30;99.90
51035;DHT22;37062;52.546;13.230;2023-10-31T01:17:10;15.30;99.90
51035;DHT22;37062;52.546;13.230;2023-10-31T01:19:39;15.20;99.90
51035;DHT22;37062;52.546;13.230;2023-10-31T01:22:09;15.20;99.90
51035;DHT22;37062;52.546;13.230;2023-10-31T01:24:39;15.30;99.90
51035;DHT22;37062;52.546;13.230;2023-10-31T01:27:07;15.30;99.90
51035;DHT22;37062;52.546;13.230;2023-10-31T01:29:35;15.20;99.90
51035;DHT22;37062;52.546;13.230;2023-10-31T01:32:04;15.10;99.90
51035;DHT22;37062;52.546;13.230;2023-10-31T01:34:43;15.00;99.90
51035;DHT22;37062;52.546;13.230;2023-10-31T01:37:11;15.00;99.90
51035;DHT22;37062;52.546;13.230;2023-10-31T01:39:42;14.90;99.90
51035;DHT22;37062;52.546;13.230;2023-10-31T01:42:13;14.90;99.90
51035;DHT22;37062;52.546;13.230;2023-10-31T01:44:42;15.00;99.90
51035;DHT22;37062;52.546;13.230;2023-10-31T01:47:10;15.00;99.90
51035;DHT22;37062;52.546;13.230;2023-10-31T01:49:40;15.00;99.90
51035;DHT22;37062;52.546;13.230;2023-10-31T01:52:08;15.00;99.90
51035;DHT22;37062;52.546;13.230;2023-10-31T01:54:37;15.00;99.90
51035;DHT22;37062;52.546;13.230;2023-10-31T01:57:08;15.10;99.90
51035;DHT22;37062;52.546;13.230;2023-10-31T01:59:37;15.10;99.90
51035;DHT22;37062;52.546;13.230;2023-10-31T02:02:07;15.10;99.90
51035;DHT22;37062;52.546;13.230;2023-10-31T02:04:35;15.10;99.90
51035;DHT22;37062;52.546;13.230;2023-10-31T02:07:04;15.10;99.90
51035;DHT22;37062;52.546;13.230;2023-10-31T02:09:32;15.00;99.90
51035;DHT22;37062;52.546;13.230;2023-10-31T02:12:01;15.00;99.90
51035;DHT22;37062;52.546;13.230;2023-10-31T02:14:31;15.00;99.90
51035;DHT22;37062;52.546;13.230;2023-10-31T02:17:00;15.00;99.90
51035;DHT22;37062;52.546;13.230;2023-10-31T02:19:28;14.90;99.90
51035;DHT22;37062;52.546;13.230;2023-10-31T02:21:57;14.90;99.90
51035;DHT22;37062;52.546;13.230;2023-10-31T02:24:26;14.90;99.90
51035;DHT22;37062;52.546;13.230;2023-10-31T02:26:54;14.90;99.90
51035;DHT22;37062;52.546;13.230;2023-10-31T02:29:24;15.00;99.90
51035;DHT22;37062;52.546;13.230;2023-10-31T02:31:52;15.00;99.90
51035;DHT22;37062;52.546;13.230;2023-10-31T02:34:22;14.90;99.90
51035;DHT22;37062;52.546;13.230;2023-10-31T02:36:50;14.90;99.90
51035;DHT22;37062;52.546;13.230;2023-10-31T02:39:20;14.90;99.90
51035;DHT22;37062;52.546;13.230;2023-10-31T02:41:48;14.90;99.90
51035;DHT22;37062;52.546;13.230;2023-10-31T02:44:16;14.90;99.90
51035;DHT22;37062;52.546;13.230;2023-10-31T02:46:46;14.90;99.90
51035;DHT22;37062;52.546;13.230;2023-10-31T02:49:15;14.90;99.90
51035;DHT22;37062;52.546;13.230;2023-10-31T02:51:43;14.90;99.90
51035;DHT22;37062;52.546;13.230;2023-10-31T02:54:11;14.90;99.90
51035;DHT22;37062;52.546;13.230;2023-10-31T02:56:40;15.00;99.90
51035;DHT22;37062;52.546;13.230;2023-10-31T02:59:09;15.00;99.90
51035;DHT22;37062;52.546;13.230;2023-10-31T03:01:37;14.90;99.90
51035;DHT22;37062;52.546;13.230;2023-10-31T03:04:05;14.90;99.90
51035;DHT22;37062;52.546;13.230;2023-10-31T03:06:33;14.90;99.90
51035;DHT22;37062;52.546;13.230;2023-10-31T03:09:02;14.90;99.90
51035;DHT22;37062;52.546;13.230;2023-10-31T03:11:30;14.90;99.90
51035;DHT22;37062;52.546;13.230;2023-10-31T03:14:00;14.90;99.90
51035;DHT22;37062;52.546;13.230;2023-10-31T03:16:29;14.90;99.90
51035;DHT22;37062;52.546;13.230;2023-10-31T03:18:57;14.90;99.90
51035;DHT22;37062;52.546;13.230;2023-10-31T03:21:25;14.90;99.90
51035;DHT22;37062;52.546;13.230;2023-10-31T03:23:53;14.90;99.90
51035;DHT22;37062;52.546;13.230;2023-10-31T03:26:22;14.90;99.90
51035;DHT22;37062;52.546;13.230;2023-10-31T03:28:50;14.90;99.90
51035;DHT22;37062;52.546;13.230;2023-10-31T03:31:25;14.90;99.90
51035;DHT22;37062;52.546;13.230;2023-10-31T03:33:53;14.90;99.90
51035;DHT22;37062;52.546;13.230;2023-10-31T03:36:22;14.90;99.90
51035;DHT22;37062;52.546;13.230;2023-10-31T03:38:50;15.00;99.90
51035;DHT22;37062;52.546;13.230;2023-10-31T03:41:18;15.00;99.90
51035;DHT22;37062;52.546;13.230;2023-10-31T03:43:50;15.00;99.90
51035;DHT22;37062;52.546;13.230;2023-10-31T03:46:18;15.00;99.90
51035;DHT22;37062;52.546;13.230;2023-10-31T03:48:48;14.90;99.90
51035;DHT22;37062;52.546;13.230;2023-10-31T03:51:16;14.90;99.90
51035;DHT22;37062;52.546;13.230;2023-10-31T03:53:44;14.80;99.90
51035;DHT22;37062;52.546;13.230;2023-10-31T03:56:12;14.80;99.90
51035;DHT22;37062;52.546;13.230;2023-10-31T03:58:42;14.90;99.90
51035;DHT22;37062;52.546;13.230;2023-10-31T04:01:10;14.90;99.90
51035;DHT22;37062;52.546;13.230;2023-10-31T04:03:38;14.90;99.90
51035;DHT22;37062;52.546;13.230;2023-10-31T04:06:08;15.00;99.90
51035;DHT22;37062;52.546;13.230;2023-10-31T04:08:36;15.00;99.90
51035;DHT22;37062;52.546;13.230;2023-10-31T04:11:04;15.00;99.90
51035;DHT22;37062;52.546;13.230;2023-10-31T04:13:33;15.10;99.90
51035;DHT22;37062;52.546;13.230;2023-10-31T04:16:01;15.10;99.90
51035;DHT22;37062;52.546;13.230;2023-10-31T04:18:29;15.10;99.90
51035;DHT22;37062;52.546;13.230;2023-10-31T04:20:57;15.10;99.90
51035;DHT22;37062;52.546;13.230;2023-10-31T04:23:27;15.10;99.90
51035;DHT22;37062;52.546;13.230;2023-10-31T04:25:55;15.10;99.90
51035;DHT22;37062;52.546;13.230;2023-10-31T04:28:23;15.00;99.90
51035;DHT22;37062;52.546;13.230;2023-10-31T04:30:51;15.10;99.90
51035;DHT22;37062;52.546;13.230;2023-10-31T04:33:19;15.10;99.90
51035;DHT22;37062;52.546;13.230;2023-10-31T04:35:48;15.10;99.90
51035;DHT22;37062;52.546;13.230;2023-10-31T04:38:16;15.10;99.90
51035;DHT22;37062;52.546;13.230;2023-10-31T04:40:46;15.10;99.90
51035;DHT22;37062;52.546;13.230;2023-10-31T04:43:14;15.10;99.90
51035;DHT22;37062;52.546;13.230;2023-10-31T04:45:42;15.10;99.90
51035;DHT22;37062;52.546;13.230;2023-10-31T04:48:10;15.10;99.90
51035;DHT22;37062;52.546;13.230;2023-10-31T04:50:39;15.10;99.90
51035;DHT22;37062;52.546;13.230;2023-10-31T04:53:07;15.10;99.90
51035;DHT22;37062;52.546;13.230;2023-10-31T04:55:36;15.10;99.90
51035;DHT22;37062;52.546;13.230;2023-10-31T04:58:05;15.10;99.90
51035;DHT22;37062;52.546;13.230;2023-10-31T05:00:34;15.20;99.90
51035;DHT22;37062;52.546;13.230;2023-10-31T05:03:02;15.20;99.90
51035;DHT22;37062;52.546;13.230;2023-10-31T05:05:30;15.20;99.90
51035;DHT22;37062;52.546;13.230;2023-10-31T05:07:58;15.20;99.90
51035;DHT22;37062;52.546;13.230;2023-10-31T05:10:27;15.20;99.90
51035;DHT22;37062;52.546;13.230;2023-10-31T05:12:55;15.20;99.90
51035;DHT22;37062;52.546;13.230;2023-10-31T05:15:25;15.20;99.90
51035;DHT22;37062;52.546;13.230;2023-10-31T05:17:55;15.20;99.90
51035;DHT22;37062;52.546;13.230;2023-10-31T05:20:23;15.20;99.90
51035;DHT22;37062;52.546;13.230;2023-10-31T05:22:51;15.20;99.90
51035;DHT22;37062;52.546;13.230;2023-10-31T05:25:20;15.20;99.90
51035;DHT22;37062;52.546;13.230;2023-10-31T05:27:48;15.20;99.90
51035;DHT22;37062;52.546;13.230;2023-10-31T05:30:16;15.30;99.90
51035;DHT22;37062;52.546;13.230;2023-10-31T05:32:46;15.30;99.90
51035;DHT22;37062;52.546;13.230;2023-10-31T05:35:15;15.30;99.90
51035;DHT22;37062;52.546;13.230;2023-10-31T05:37:43;15.30;99.90
51035;DHT22;37062;52.546;13.230;2023-10-31T05:40:12;15.30;99.90
51035;DHT22;37062;52.546;13.230;2023-10-31T05:42:40;15.30;99.90
51035;DHT22;37062;52.546;13.230;2023-10-31T05:45:09;15.40;99.90
51035;DHT22;37062;52.546;13.230;2023-10-31T05:47:37;15.40;99.90
51035;DHT22;37062;52.546;13.230;2023-10-31T05:50:08;15.40;99.90
51035;DHT22;37062;52.546;13.230;2023-10-31T05:52:36;15.30;99.90
51035;DHT22;37062;52.546;13.230;2023-10-31T05:55:05;15.30;99.90
51035;DHT22;37062;52.546;13.230;2023-10-31T05:57:34;15.30;99.90
51035;DHT22;37062;52.546;13.230;2023-10-31T06:00:02;15.30;99.90
51035;DHT22;37062;52.546;13.230;2023-10-31T06:02:37;15.30;99.90
51035;DHT22;37062;52.546;13.230;2023-10-31T06:05:08;15.30;99.90
51035;DHT22;37062;52.546;13.230;2023-10-31T06:07:36;15.40;99.90
51035;DHT22;37062;52.546;13.230;2023-10-31T06:10:05;15.40;99.90
51035;DHT22;37062;52.546;13.230;2023-10-31T06:12:34;15.40;99.90
51035;DHT22;37062;52.546;13.230;2023-10-31T06:15:02;15.30;99.90
51035;DHT22;37062;52.546;13.230;2023-10-31T06:17:31;15.20;99.90
51035;DHT22;37062;52.546;13.230;2023-10-31T06:20:01;15.10;99.90
51035;DHT22;37062;52.546;13.230;2023-10-31T06:22:31;15.10;99.90
51035;DHT22;37062;52.546;13.230;2023-10-31T06:24:59;15.10;99.90
51035;DHT22;37062;52.546;13.230;2023-10-31T06:27:28;15.00;99.90
51035;DHT22;37062;52.546;13.230;2023-10-31T06:29:56;15.00;99.90
51035;DHT22;37062;52.546;13.230;2023-10-31T06:32:45;15.00;99.90
51035;DHT22;37062;52.546;13.230;2023-10-31T06:35:13;15.00;99.90
51035;DHT22;37062;52.546;13.230;2023-10-31T06:37:43;15.00;99.90
51035;DHT22;37062;52.546;13.230;2023-10-31T06:40:11;15.10;99.90
51035;DHT22;37062;52.546;13.230;2023-10-31T06:42:40;15.20;99.90
51035;DHT22;37062;52.546;13.230;2023-10-31T06:45:08;15.20;99.90
51035;DHT22;37062;52.546;13.230;2023-10-31T06:47:37;15.30;99.90
51035;DHT22;37062;52.546;13.230;2023-10-31T06:50:07;15.40;99.90
51035;DHT22;37062;52.546;13.230;2023-10-31T06:52:35;15.40;99.90
51035;DHT22;37062;52.546;13.230;2023-10-31T06:55:06;15.50;99.90
51035;DHT22;37062;52.546;13.230;2023-10-31T06:57:34;15.50;99.90
51035;DHT22;37062;52.546;13.230;2023-10-31T07:00:03;15.50;99.90
51035;DHT22;37062;52.546;13.230;2023-10-31T07:02:31;15.60;99.90
51035;DHT22;37062;52.546;13.230;2023-10-31T07:04:59;15.60;99.90
51035;DHT22;37062;52.546;13.230;2023-10-31T07:07:28;15.60;99.90
51035;DHT22;37062;52.546;13.230;2023-10-31T07:09:56;15.60;99.90
51035;DHT22;37062;52.546;13.230;2023-10-31T07:12:25;15.60;99.90
51035;DHT22;37062;52.546;13.230;2023-10-31T07:14:53;15.60;99.90
51035;DHT22;37062;52.546;13.230;2023-10-31T07:17:22;15.50;99.90
51035;DHT22;37062;52.546;13.230;2023-10-31T07:19:50;15.50;99.90
51035;DHT22;37062;52.546;13.230;2023-10-31T07:22:18;15.40;99.90
51035;DHT22;37062;52.546;13.230;2023-10-31T07:24:46;15.40;99.90
51035;DHT22;37062;52.546;13.230;2023-10-31T07:27:15;15.40;99.90
51035;DHT22;37062;52.546;13.230;2023-10-31T07:29:45;15.40;99.90
51035;DHT22;37062;52.546;13.230;2023-10-31T07:32:14;15.40;99.90
51035;DHT22;37062;52.546;13.230;2023-10-31T07:34:42;15.40;99.90
51035;DHT22;37062;52.546;13.230;2023-10-31T07:37:10;15.50;99.90
51035;DHT22;37062;52.546;13.230;2023-10-31T07:39:39;15.40;99.90
51035;DHT22;37062;52.546;13.230;2023-10-31T07:42:07;15.50;99.90
51035;DHT22;37062;52.546;13.230;2023-10-31T07:44:35;15.40;99.90
51035;DHT22;37062;52.546;13.230;2023-10-31T07:47:05;15.40;99.90
51035;DHT22;37062;52.546;13.230;2023-10-31T07:49:33;15.40;99.90
51035;DHT22;37062;52.546;13.230;2023-10-31T07:52:02;15.40;99.90
51035;DHT22;37062;52.546;13.230;2023-10-31T07:54:30;15.40;99.90
51035;DHT22;37062;52.546;13.230;2023-10-31T07:56:58;15.40;99.90
51035;DHT22;37062;52.546;13.230;2023-10-31T07:59:26;15.40;99.90
51035;DHT22;37062;52.546;13.230;2023-10-31T08:01:54;15.40;99.90
51035;DHT22;37062;52.546;13.230;2023-10-31T08:04:24;15.30;99.90
51035;DHT22;37062;52.546;13.230;2023-10-31T08:06:52;15.30;99.90
51035;DHT22;37062;52.546;13.230;2023-10-31T08:09:20;15.30;99.90
51035;DHT22;37062;52.546;13.230;2023-10-31T08:11:49;15.30;99.90
51035;DHT22;37062;52.546;13.230;2023-10-31T08:14:17;15.40;99.90
51035;DHT22;37062;52.546;13.230;2023-10-31T08:16:46;15.40;99.90
51035;DHT22;37062;52.546;13.230;2023-10-31T08:19:14;15.40;99.90
51035;DHT22;37062;52.546;13.230;2023-10-31T08:21:43;15.50;99.90
51035;DHT22;37062;52.546;13.230;2023-10-31T08:24:12;15.50;99.90
51035;DHT22;37062;52.546;13.230;2023-10-31T08:26:41;15.60;99.90
51035;DHT22;37062;52.546;13.230;2023-10-31T08:29:09;15.60;99.90
51035;DHT22;37062;52.546;13.230;2023-10-31T08:31:37;15.60;99.90
51035;DHT22;37062;52.546;13.230;2023-10-31T08:34:05;15.70;99.90
51035;DHT22;37062;52.546;13.230;2023-10-31T08:36:33;15.70;99.90
51035;DHT22;37062;52.546;13.230;2023-10-31T08:39:03;15.70;99.90
51035;DHT22;37062;52.546;13.230;2023-10-31T08:41:31;15.70;99.90
51035;DHT22;37062;52.546;13.230;2023-10-31T08:43:59;15.70;99.90
51035;DHT22;37062;52.546;13.230;2023-10-31T08:46:28;15.70;99.90
51035;DHT22;37062;52.546;13.230;2023-10-31T08:48:56;15.60;99.90
51035;DHT22;37062;52.546;13.230;2023-10-31T08:51:25;15.60;99.90
51035;DHT22;37062;52.546;13.230;2023-10-31T08:53:53;15.60;99.90
51035;DHT22;37062;52.546;13.230;2023-10-31T08:56:22;15.60;99.90
51035;DHT22;37062;52.546;13.230;2023-10-31T08:58:51;15.60;99.90
51035;DHT22;37062;52.546;13.230;2023-10-31T09:01:19;15.70;99.90
51035;DHT22;37062;52.546;13.230;2023-10-31T09:03:48;15.60;99.90
51035;DHT22;37062;52.546;13.230;2023-10-31T09:06:16;15.70;99.90
51035;DHT22;37062;52.546;13.230;2023-10-31T09:08:44;15.70;99.90
51035;DHT22;37062;52.546;13.230;2023-10-31T09:11:12;15.70;99.90
51035;DHT22;37062;52.546;13.230;2023-10-31T09:13:42;15.80;99.90
51035;DHT22;37062;52.546;13.230;2023-10-31T09:16:10;15.80;99.90
51035;DHT22;37062;52.546;13.230;2023-10-31T09:18:39;15.90;99.90
51035;DHT22;37062;52.546;13.230;2023-10-31T09:21:08;16.10;99.90
51035;DHT22;37062;52.546;13.230;2023-10-31T09:23:36;16.20;99.90
51035;DHT22;37062;52.546;13.230;2023-10-31T09:26:05;16.30;99.90
51035;DHT22;37062;52.546;13.230;2023-10-31T09:28:33;16.40;99.90
51035;DHT22;37062;52.546;13.230;2023-10-31T09:31:03;16.30;99.90
51035;DHT22;37062;52.546;13.230;2023-10-31T09:33:31;16.30;99.90
51035;DHT22;37062;52.546;13.230;2023-10-31T09:35:59;16.20;99.90
51035;DHT22;37062;52.546;13.230;2023-10-31T09:38:28;16.10;99.90
51035;DHT22;37062;52.546;13.230;2023-10-31T09:40:57;16.10;99.90
51035;DHT22;37062;52.546;13.230;2023-10-31T09:43:25;16.10;99.90
51035;DHT22;37062;52.546;13.230;2023-10-31T09:45:53;15.90;99.90
51035;DHT22;37062;52.546;13.230;2023-10-31T09:48:23;16.00;99.90
51035;DHT22;37062;52.546;13.230;2023-10-31T09:50:52;16.00;99.90
51035;DHT22;37062;52.546;13.230;2023-10-31T09:53:20;16.10;99.90
51035;DHT22;37062;52.546;13.230;2023-10-31T09:55:50;16.10;99.90
51035;DHT22;37062;52.546;13.230;2023-10-31T09:58:20;16.10;99.90
51035;DHT22;37062;52.546;13.230;2023-10-31T10:00:49;16.00;99.90
51035;DHT22;37062;52.546;13.230;2023-10-31T10:03:17;16.10;99.90
51035;DHT22;37062;52.546;13.230;2023-10-31T10:05:48;16.00;99.90
51035;DHT22;37062;52.546;13.230;2023-10-31T10:08:16;16.00;99.90
51035;DHT22;37062;52.546;13.230;2023-10-31T10:10:44;16.00;99.90
51035;DHT22;37062;52.546;13.230;2023-10-31T10:13:12;16.00;99.90
51035;DHT22;37062;52.546;13.230;2023-10-31T10:15:44;16.00;99.90
51035;DHT22;37062;52.546;13.230;2023-10-31T10:18:24;16.00;99.90
51035;DHT22;37062;52.546;13.230;2023-10-31T10:20:59;16.20;99.90
51035;DHT22;37062;52.546;13.230;2023-10-31T10:23:27;16.30;99.90
51035;DHT22;37062;52.546;13.230;2023-10-31T10:25:57;16.30;99.90
51035;DHT22;37062;52.546;13.230;2023-10-31T10:28:26;16.30;99.90
51035;DHT22;37062;52.546;13.230;2023-10-31T10:30:56;16.30;99.90
51035;DHT22;37062;52.546;13.230;2023-10-31T10:33:24;16.30;99.90
51035;DHT22;37062;52.546;13.230;2023-10-31T10:35:55;16.30;99.90
51035;DHT22;37062;52.546;13.230;2023-10-31T10:38:25;16.30;99.90
51035;DHT22;37062;52.546;13.230;2023-10-31T10:40:55;16.30;99.90
51035;DHT22;37062;52.546;13.230;2023-10-31T10:43:26;16.40;99.90
51035;DHT22;37062;52.546;13.230;2023-10-31T10:45:55;16.40;99.90
51035;DHT22;37062;52.546;13.230;2023-10-31T10:48:25;16.50;99.90
51035;DHT22;37062;52.546;13.230;2023-10-31T10:50:59;16.50;99.90
51035;DHT22;37062;52.546;13.230;2023-10-31T10:53:34;16.50;99.90
51035;DHT22;37062;52.546;13.230;2023-10-31T10:56:09;16.50;99.90
51035;DHT22;37062;52.546;13.230;2023-10-31T10:58:48;16.50;99.90
51035;DHT22;37062;52.546;13.230;2023-10-31T11:01:19;16.40;99.90
51035;DHT22;37062;52.546;13.230;2023-10-31T11:03:48;16.60;99.90
51035;DHT22;37062;52.546;13.230;2023-10-31T11:06:19;16.70;99.90
51035;DHT22;37062;52.546;13.230;2023-10-31T11:08:49;16.80;99.90
51035;DHT22;37062;52.546;13.230;2023-10-31T11:11:20;16.90;99.90
51035;DHT22;37062;52.546;13.230;2023-10-31T11:13:50;16.90;99.90
51035;DHT22;37062;52.546;13.230;2023-10-31T11:16:24;16.80;99.90
51035;DHT22;37062;52.546;13.230;2023-10-31T11:18:54;16.80;99.90
51035;DHT22;37062;52.546;13.230;2023-10-31T11:21:23;16.80;99.90
51035;DHT22;37062;52.546;13.230;2023-10-31T11:23:59;16.80;99.90
51035;DHT22;37062;52.546;13.230;2023-10-31T11:26:27;16.70;99.90
51035;DHT22;37062;52.546;13.230;2023-10-31T11:29:03;16.60;99.90
51035;DHT22;37062;52.546;13.230;2023-10-31T11:31:33;16.60;99.90
51035;DHT22;37062;52.546;13.230;2023-10-31T11:34:01;16.50;99.90
51035;DHT22;37062;52.546;13.230;2023-10-31T11:36:30;16.50;99.90
51035;DHT22;37062;52.546;13.230;2023-10-31T11:39:12;16.50;99.90
51035;DHT22;37062;52.546;13.230;2023-10-31T11:41:45;16.50;99.90
51035;DHT22;37062;52.546;13.230;2023-10-31T11:44:16;16.50;99.90
51035;DHT22;37062;52.546;13.230;2023-10-31T11:46:45;16.60;99.90
51035;DHT22;37062;52.546;13.230;2023-10-31T11:49:17;16.60;99.90
51035;DHT22;37062;52.546;13.230;2023-10-31T11:51:46;16.60;99.90
51035;DHT22;37062;52.546;13.230;2023-10-31T11:54:17;16.50;99.90
51035;DHT22;37062;52.546;13.230;2023-10-31T11:56:51;16.50;99.90
51035;DHT22;37062;52.546;13.230;2023-10-31T11:59:19;16.50;99.90
51035;DHT22;37062;52.546;13.230;2023-10-31T12:01:47;16.50;99.90
51035;DHT22;37062;52.546;13.230;2023-10-31T12:04:22;16.40;99.90
51035;DHT22;37062;52.546;13.230;2023-10-31T12:06:58;16.40;99.90
51035;DHT22;37062;52.546;13.230;2023-10-31T12:09:28;16.40;99.90
51035;DHT22;37062;52.546;13.230;2023-10-31T12:11:59;16.40;99.90
51035;DHT22;37062;52.546;13.230;2023-10-31T12:14:30;16.30;99.90
51035;DHT22;37062;52.546;13.230;2023-10-31T12:17:04;16.20;99.90
51035;DHT22;37062;52.546;13.230;2023-10-31T12:19:33;16.10;99.90
51035;DHT22;37062;52.546;13.230;2023-10-31T12:22:02;16.10;99.90
51035;DHT22;37062;52.546;13.230;2023-10-31T12:24:41;16.10;99.90
51035;DHT22;37062;52.546;13.230;2023-10-31T12:27:09;16.10;99.90
51035;DHT22;37062;52.546;13.230;2023-10-31T12:29:38;16.10;99.90
51035;DHT22;37062;52.546;13.230;2023-10-31T12:32:12;16.20;99.90
51035;DHT22;37062;52.546;13.230;2023-10-31T12:34:43;16.20;99.90
51035;DHT22;37062;52.546;13.230;2023-10-31T12:37:11;16.30;99.90
51035;DHT22;37062;52.546;13.230;2023-10-31T12:39:42;16.30;99.90
51035;DHT22;37062;52.546;13.230;2023-10-31T12:42:16;16.30;99.90
51035;DHT22;37062;52.546;13.230;2023-10-31T12:44:44;16.40;99.90
51035;DHT22;37062;52.546;13.230;2023-10-31T12:47:21;16.40;99.90
51035;DHT22;37062;52.546;13.230;2023-10-31T12:50:07;16.40;99.90
51035;DHT22;37062;52.546;13.230;2023-10-31T12:52:48;16.50;99.90
51035;DHT22;37062;52.546;13.230;2023-10-31T12:55:19;16.40;99.90
51035;DHT22;37062;52.546;13.230;2023-10-31T12:57:48;16.40;99.90
51035;DHT22;37062;52.546;13.230;2023-10-31T13:00:17;16.40;99.90
51035;DHT22;37062;52.546;13.230;2023-10-31T13:02:52;16.40;99.90
51035;DHT22;37062;52.546;13.230;2023-10-31T13:05:27;16.40;99.90
51035;DHT22;37062;52.546;13.230;2023-10-31T13:07:57;16.40;99.90
51035;DHT22;37062;52.546;13.230;2023-10-31T13:10:28;16.30;99.90
51035;DHT22;37062;52.546;13.230;2023-10-31T13:12:58;16.20;99.90
51035;DHT22;37062;52.546;13.230;2023-10-31T13:15:26;16.10;99.90
51035;DHT22;37062;52.546;13.230;2023-10-31T13:17:54;16.20;99.90
51035;DHT22;37062;52.546;13.230;2023-10-31T13:20:24;16.20;99.90
51035;DHT22;37062;52.546;13.230;2023-10-31T13:22:52;16.30;99.90
51035;DHT22;37062;52.546;13.230;2023-10-31T13:25:21;16.30;99.90
51035;DHT22;37062;52.546;13.230;2023-10-31T13:27:50;16.30;99.90
51035;DHT22;37062;52.546;13.230;2023-10-31T13:30:20;16.30;99.90
51035;DHT22;37062;52.546;13.230;2023-10-31T13:32:50;16.30;99.90
51035;DHT22;37062;52.546;13.230;2023-10-31T13:35:19;16.20;99.90
51035;DHT22;37062;52.546;13.230;2023-10-31T13:37:47;16.20;99.90
51035;DHT22;37062;52.546;13.230;2023-10-31T13:40:16;16.20;99.90
51035;DHT22;37062;52.546;13.230;2023-10-31T13:42:44;16.20;99.90
51035;DHT22;37062;52.546;13.230;2023-10-31T13:45:13;16.20;99.90
51035;DHT22;37062;52.546;13.230;2023-10-31T13:47:42;16.10;99.90
51035;DHT22;37062;52.546;13.230;2023-10-31T13:50:10;16.00;99.90
51035;DHT22;37062;52.546;13.230;2023-10-31T13:52:38;16.00;99.90
51035;DHT22;37062;52.546;13.230;2023-10-31T13:55:07;16.00;99.90
51035;DHT22;37062;52.546;13.230;2023-10-31T13:57:35;16.00;99.90
51035;DHT22;37062;52.546;13.230;2023-10-31T14:00:05;16.00;99.90
51035;DHT22;37062;52.546;13.230;2023-10-31T14:02:40;16.00;99.90
51035;DHT22;37062;52.546;13.230;2023-10-31T14:05:08;15.90;99.90
51035;DHT22;37062;52.546;13.230;2023-10-31T14:07:37;15.90;99.90
51035;DHT22;37062;52.546;13.230;2023-10-31T14:10:05;15.80;99.90
51035;DHT22;37062;52.546;13.230;2023-10-31T14:12:34;15.80;99.90
51035;DHT22;37062;52.546;13.230;2023-10-31T14:15:02;15.80;99.90
51035;DHT22;37062;52.546;13.230;2023-10-31T14:17:30;15.70;99.90
51035;DHT22;37062;52.546;13.230;2023-10-31T14:20:00;15.60;99.90
51035;DHT22;37062;52.546;13.230;2023-10-31T14:22:28;15.60;99.90
51035;DHT22;37062;52.546;13.230;2023-10-31T14:24:57;15.60;99.90
51035;DHT22;37062;52.546;13.230;2023-10-31T14:27:25;15.50;99.90
51035;DHT22;37062;52.546;13.230;2023-10-31T14:29:53;15.40;99.90
51035;DHT22;37062;52.546;13.230;2023-10-31T14:32:21;15.50;99.90
51035;DHT22;37062;52.546;13.230;2023-10-31T14:34:50;15.40;99.90
51035;DHT22;37062;52.546;13.230;2023-10-31T14:37:19;15.40;99.90
51035;DHT22;37062;52.546;13.230;2023-10-31T14:39:48;15.30;99.90
51035;DHT22;37062;52.546;13.230;2023-10-31T14:42:16;15.30;99.90
51035;DHT22;37062;52.546;13.230;2023-10-31T14:44:44;15.20;99.90
51035;DHT22;37062;52.546;13.230;2023-10-31T14:47:12;15.20;99.90
51035;DHT22;37062;52.546;13.230;2023-10-31T14:49:41;15.10;99.90
51035;DHT22;37062;52.546;13.230;2023-10-31T14:52:09;15.10;99.90
51035;DHT22;37062;52.546;13.230;2023-10-31T14:54:39;15.10;99.90
51035;DHT22;37062;52.546;13.230;2023-10-31T14:57:07;15.10;99.90
51035;DHT22;37062;52.546;13.230;2023-10-31T14:59:35;15.10;99.90
51035;DHT22;37062;52.546;13.230;2023-10-31T15:02:04;15.10;99.90
51035;DHT22;37062;52.546;13.230;2023-10-31T15:04:34;15.10;99.90
51035;DHT22;37062;52.546;13.230;2023-10-31T15:07:02;15.10;99.90
51035;DHT22;37062;52.546;13.230;2023-10-31T15:09:31;15.10;99.90
51035;DHT22;37062;52.546;13.230;2023-10-31T15:12:00;15.10;99.90
51035;DHT22;37062;52.546;13.230;2023-10-31T15:14:28;15.10;99.90
51035;DHT22;37062;52.546;13.230;2023-10-31T15:16:57;15.10;99.90
51035;DHT22;37062;52.546;13.230;2023-10-31T15:19:25;15.00;99.90
51035;DHT22;37062;52.546;13.230;2023-10-31T15:21:53;14.90;99.90
51035;DHT22;37062;52.546;13.230;2023-10-31T15:24:22;15.00;99.90
51035;DHT22;37062;52.546;13.230;2023-10-31T15:26:50;14.90;99.90